Pagina principală
METAR-TAF:

METAR-TAF

Aeroporturi :

Perry Lefors Field

Pampa, Texas, Statele Unite ale Americii

Latitudine: 35-36-46N, longitudine: 100-59-46W, elevație: 989 m

Observații meteo curente

Raportul a fost făcut în urmă cu 41 de minute, la 15:35 UTC
Vânt 19 kt de la Nord-vest cu rafale de până la 23 kt
Temperatură 26°C
Umiditate 23%
Presiune 1010 hPa
Vizibilitate: 16.1 km
Cer senin

METAR: KPPA 211535Z AUTO 31019G23KT 10SM CLR 26/03 A2982 RMK AO2 T02570028

Ora: 11:16 (16:16 UTC)


TAF: lipsă

Observații și prognoze meteo pentru peste 4.000 de aeroporturi (rapoarte METAR și TAF).

Stațiile disponibile sunt reprezentate pe hartă prin puncte galbene și roșii.

Țineți indicatorul mouse-ului pe punctul dorit pentru a vedea denumirea stației.

Apoi, faceți clic pentru a vedea observațiile și prognozele meteorologice.

Pentru a schimba harta: Pentru mărire, faceți clic pe butoanele verzi cu cruce neagră; pentru micșorare, pe butonul verde cu o liniuță; pentru hărți învecinate, pe săgețile verzi.


METAR-TAF: